Time;durP1;ratioP1;P1;durP2;ratioP2;P2;SDS_P1;SDS_P2;PMS_P1;PMS_P2;Temp;Humidity;BMP_temperature;BMP_pressure;BME280_temperature;BME280_humidity;BME280_pressure;Samples;Min_cycle;Max_cycle;Signal;HPM_P1;HPM_P2
2022/01/29 00:01:23;;;;;;;7.20;2.60;;;;;;;;;;4964789;28;101239;-76
2022/01/29 00:03:50;;;;;;;5.03;1.75;;;;;;;;;;5013721;28;100225;-76
2022/01/29 00:06:17;;;;;;;5.80;1.50;;;;;;;;;;5014429;28;100081;-76
2022/01/29 00:08:47;;;;;;;5.30;2.05;;;;;;;;;;4998985;28;100347;-76
2022/01/29 00:11:16;;;;;;;2.78;0.95;;;;;;;;;;5021544;28;100796;-75
2022/01/29 00:13:42;;;;;;;5.95;1.50;;;;;;;;;;5014362;28;100035;-76
2022/01/29 00:16:12;;;;;;;4.75;1.33;;;;;;;;;;4948675;28;100180;-76
2022/01/29 00:18:39;;;;;;;4.25;1.20;;;;;;;;;;5013514;28;100138;-77
2022/01/29 00:21:07;;;;;;;3.50;1.35;;;;;;;;;;4996220;28;100711;-76
2022/01/29 00:23:34;;;;;;;6.78;1.60;;;;;;;;;;4996284;28;100175;-76
2022/01/29 00:26:01;;;;;;;5.40;1.70;;;;;;;;;;4996024;28;100147;-77
2022/01/29 00:28:28;;;;;;;4.47;1.25;;;;;;;;;;5004198;28;100244;-77
2022/01/29 00:30:57;;;;;;;5.28;1.60;;;;;;;;;;5033484;28;100654;-76
2022/01/29 00:33:23;;;;;;;4.80;1.42;;;;;;;;;;4999669;28;100243;-77
2022/01/29 00:35:50;;;;;;;7.15;1.70;;;;;;;;;;5015967;28;100055;-77
2022/01/29 00:38:17;;;;;;;6.30;1.30;;;;;;;;;;5033383;28;100290;-77
2022/01/29 00:40:45;;;;;;;7.25;1.85;;;;;;;;;;5015568;28;100620;-76
2022/01/29 00:43:13;;;;;;;4.82;1.30;;;;;;;;;;5034080;28;100689;-77
2022/01/29 00:45:40;;;;;;;4.47;1.42;;;;;;;;;;5016441;28;99996;-77
2022/01/29 00:48:08;;;;;;;7.95;1.80;;;;;;;;;;5015243;28;100717;-75
2022/01/29 00:50:35;;;;;;;10.40;2.22;;;;;;;;;;5033222;28;100822;-77
2022/01/29 00:53:02;;;;;;;8.13;2.25;;;;;;;;;;5020301;28;101821;-75
2022/01/29 00:55:29;;;;;;;7.28;1.90;;;;;;;;;;4994891;28;100139;-76
2022/01/29 00:57:56;;;;;;;8.07;2.13;;;;;;;;;;4995426;28;100251;-76
2022/01/29 01:00:26;;;;;;;4.00;1.55;;;;;;;;;;4991613;28;100548;-77
2022/01/29 01:02:53;;;;;;;7.20;1.92;;;;;;;;;;4976322;28;100065;-77
2022/01/29 01:05:20;;;;;;;7.00;1.90;;;;;;;;;;4992450;28;100079;-77
2022/01/29 01:07:46;;;;;;;4.43;2.08;;;;;;;;;;4993108;28;100298;-76
2022/01/29 01:10:16;;;;;;;4.72;2.08;;;;;;;;;;4991716;28;102324;-77
2022/01/29 01:12:43;;;;;;;6.18;2.35;;;;;;;;;;4992213;28;100140;-77
2022/01/29 01:15:10;;;;;;;6.05;2.13;;;;;;;;;;4995605;28;100234;-76
2022/01/29 01:17:37;;;;;;;5.53;1.70;;;;;;;;;;5012304;28;100388;-77
2022/01/29 01:20:04;;;;;;;5.35;1.73;;;;;;;;;;4994977;28;100540;-76
2022/01/29 01:22:31;;;;;;;8.23;1.77;;;;;;;;;;5012332;28;100076;-77
2022/01/29 01:24:58;;;;;;;6.85;1.58;;;;;;;;;;4995165;28;100257;-76
2022/01/29 01:27:25;;;;;;;4.57;1.58;;;;;;;;;;4994974;28;100443;-77
2022/01/29 01:29:52;;;;;;;5.90;1.70;;;;;;;;;;5011380;28;100585;-77
2022/01/29 01:32:18;;;;;;;5.60;1.80;;;;;;;;;;5011991;28;100163;-77
2022/01/29 01:34:50;;;;;;;3.90;1.73;;;;;;;;;;4995536;28;100261;-77
2022/01/29 01:37:31;;;;;;;7.85;1.63;;;;;;;;;;4995621;28;100465;-77
2022/01/29 01:39:59;;;;;;;5.07;1.42;;;;;;;;;;5010692;28;100899;-76
2022/01/29 01:42:25;;;;;;;5.63;1.83;;;;;;;;;;5012098;28;99938;-76
2022/01/29 01:44:53;;;;;;;4.63;1.35;;;;;;;;;;5012914;28;99934;-76
2022/01/29 01:47:20;;;;;;;6.00;1.80;;;;;;;;;;4997859;28;100397;-76
2022/01/29 01:49:47;;;;;;;5.20;1.50;;;;;;;;;;4974722;28;101098;-76
2022/01/29 01:52:14;;;;;;;5.97;1.63;;;;;;;;;;4975013;28;100114;-76
2022/01/29 01:54:41;;;;;;;4.70;1.67;;;;;;;;;;4991689;28;99952;-76
2022/01/29 01:57:08;;;;;;;7.28;2.10;;;;;;;;;;4958233;28;101711;-77
2022/01/29 01:59:35;;;;;;;5.88;1.90;;;;;;;;;;5002082;28;100624;-76
2022/01/29 02:02:02;;;;;;;4.88;1.70;;;;;;;;;;4994724;28;100243;-77
2022/01/29 02:04:32;;;;;;;6.63;1.63;;;;;;;;;;4995170;28;99932;-77
2022/01/29 02:06:59;;;;;;;6.78;1.90;;;;;;;;;;4977514;28;100119;-76
2022/01/29 02:09:26;;;;;;;6.47;1.95;;;;;;;;;;4961772;28;100749;-76
2022/01/29 02:11:54;;;;;;;7.25;1.92;;;;;;;;;;4994678;28;100144;-75
2022/01/29 02:14:26;;;;;;;5.82;2.22;;;;;;;;;;4994601;28;100116;-76
2022/01/29 02:16:53;;;;;;;9.40;2.88;;;;;;;;;;5011839;28;100386;-76
2022/01/29 02:19:23;;;;;;;8.95;1.70;;;;;;;;;;4977987;28;102544;-75
2022/01/29 02:21:49;;;;;;;4.10;1.90;;;;;;;;;;5011170;28;100227;-76
2022/01/29 02:24:16;;;;;;;6.70;1.73;;;;;;;;;;5032886;28;100142;-76
2022/01/29 02:26:44;;;;;;;4.63;1.50;;;;;;;;;;4997472;28;100182;-77
2022/01/29 02:29:11;;;;;;;5.82;1.52;;;;;;;;;;5014080;28;103239;-76
2022/01/29 02:31:48;;;;;;;8.73;2.22;;;;;;;;;;5031891;28;100059;-76
2022/01/29 02:34:15;;;;;;;9.88;2.63;;;;;;;;;;5014278;28;100199;-76
2022/01/29 02:36:43;;;;;;;5.28;2.03;;;;;;;;;;5000397;28;100213;-76
2022/01/29 02:39:10;;;;;;;4.90;1.67;;;;;;;;;;4961539;28;100613;-76
2022/01/29 02:41:40;;;;;;;6.30;2.10;;;;;;;;;;4978056;28;100224;-76
2022/01/29 02:44:08;;;;;;;6.60;2.08;;;;;;;;;;4993823;28;100089;-76
2022/01/29 02:49:25;;;;;;;6.03;1.80;;;;;;;;;;4996037;28;100946;-76
2022/01/29 02:51:53;;;;;;;4.70;1.63;;;;;;;;;;4994302;28;100123;-76
2022/01/29 02:54:20;;;;;;;7.65;2.38;;;;;;;;;;5012141;28;100081;-76
2022/01/29 02:56:47;;;;;;;8.93;2.25;;;;;;;;;;4993375;28;100572;-77
2022/01/29 02:59:14;;;;;;;7.28;2.33;;;;;;;;;;5011862;28;102948;-75
2022/01/29 03:01:41;;;;;;;5.28;1.85;;;;;;;;;;5031588;28;100178;-75
2022/01/29 03:04:08;;;;;;;11.40;2.65;;;;;;;;;;4981022;28;100281;-76
2022/01/29 03:06:35;;;;;;;8.02;2.40;;;;;;;;;;4997268;28;100278;-76
2022/01/29 03:09:03;;;;;;;7.57;2.35;;;;;;;;;;4977004;28;100067;-76
2022/01/29 03:11:30;;;;;;;12.30;2.67;;;;;;;;;;4994420;28;100140;-76
2022/01/29 03:13:56;;;;;;;10.60;2.67;;;;;;;;;;4997997;28;100197;-76
2022/01/29 03:16:23;;;;;;;9.00;2.50;;;;;;;;;;5014942;28;100276;-76
2022/01/29 03:18:50;;;;;;;7.07;2.35;;;;;;;;;;4998815;28;100541;-77
2022/01/29 03:21:17;;;;;;;8.65;2.40;;;;;;;;;;5016700;28;100055;-77
2022/01/29 03:23:44;;;;;;;7.68;2.13;;;;;;;;;;5000956;28;100110;-76
2022/01/29 03:26:11;;;;;;;9.90;3.17;;;;;;;;;;5000587;28;100208;-76
2022/01/29 03:28:38;;;;;;;7.68;2.95;;;;;;;;;;5000235;28;100590;-76
2022/01/29 03:31:04;;;;;;;8.32;2.50;;;;;;;;;;5016246;28;100041;-76
2022/01/29 03:33:31;;;;;;;8.13;2.28;;;;;;;;;;5000804;28;100035;-76
2022/01/29 03:35:58;;;;;;;9.27;2.78;;;;;;;;;;5000695;28;100311;-76
2022/01/29 03:38:25;;;;;;;9.30;3.00;;;;;;;;;;5017611;28;100594;-76
2022/01/29 03:40:53;;;;;;;9.02;2.80;;;;;;;;;;5000665;28;100038;-76
2022/01/29 03:43:30;;;;;;;9.10;2.75;;;;;;;;;;5000892;28;99982;-76
2022/01/29 03:45:57;;;;;;;7.07;2.55;;;;;;;;;;5033148;28;100362;-77
2022/01/29 03:48:24;;;;;;;8.13;2.83;;;;;;;;;;5017082;28;100607;-76
2022/01/29 03:50:50;;;;;;;11.35;2.75;;;;;;;;;;5034175;28;100094;-76
2022/01/29 03:53:17;;;;;;;5.18;2.08;;;;;;;;;;5017482;28;100058;-76
2022/01/29 03:55:44;;;;;;;7.55;2.10;;;;;;;;;;4996647;28;103279;-76
2022/01/29 03:58:11;;;;;;;9.57;2.95;;;;;;;;;;4996902;28;101266;-76
2022/01/29 04:00:38;;;;;;;8.48;2.85;;;;;;;;;;4996908;28;100038;-76
2022/01/29 04:03:04;;;;;;;11.02;2.88;;;;;;;;;;4997412;28;100002;-76
2022/01/29 04:05:32;;;;;;;7.57;2.75;;;;;;;;;;5014520;28;100161;-76
2022/01/29 04:07:59;;;;;;;8.25;2.35;;;;;;;;;;4995707;28;100826;-76
2022/01/29 04:10:29;;;;;;;9.07;2.38;;;;;;;;;;4996060;28;102224;-76
2022/01/29 04:12:56;;;;;;;7.07;2.50;;;;;;;;;;4997240;28;99955;-76
2022/01/29 04:15:23;;;;;;;7.10;2.30;;;;;;;;;;5014280;28;100391;-76
2022/01/29 04:17:50;;;;;;;9.02;2.88;;;;;;;;;;5014190;28;100639;-76
2022/01/29 04:20:17;;;;;;;8.00;2.45;;;;;;;;;;4980319;28;100099;-75
2022/01/29 04:22:44;;;;;;;7.35;1.95;;;;;;;;;;5013186;28;99942;-75
2022/01/29 04:25:10;;;;;;;7.57;2.00;;;;;;;;;;5014191;28;100091;-77
2022/01/29 04:27:41;;;;;;;6.05;2.38;;;;;;;;;;4996955;28;101874;-74
2022/01/29 04:30:27;;;;;;;6.95;2.00;;;;;;;;;;4981771;28;100066;-74
2022/01/29 04:32:59;;;;;;;5.22;2.03;;;;;;;;;;5026987;28;99872;-75
2022/01/29 04:35:26;;;;;;;6.03;2.22;;;;;;;;;;4999488;28;102560;-75
2022/01/29 04:37:53;;;;;;;7.60;2.28;;;;;;;;;;4999400;28;100611;-75
2022/01/29 04:40:20;;;;;;;4.10;1.77;;;;;;;;;;5000225;28;100180;-75
2022/01/29 04:42:47;;;;;;;4.22;1.73;;;;;;;;;;5034541;28;100096;-73
2022/01/29 04:45:14;;;;;;;6.90;2.22;;;;;;;;;;5015727;28;100251;-74
2022/01/29 04:47:41;;;;;;;7.28;1.77;;;;;;;;;;4998753;28;100842;-74
2022/01/29 04:50:08;;;;;;;3.22;1.77;;;;;;;;;;5034472;28;99838;-76
2022/01/29 04:52:35;;;;;;;8.23;2.33;;;;;;;;;;5034380;28;100158;-75
2022/01/29 04:55:02;;;;;;;10.30;1.92;;;;;;;;;;5033831;28;100230;-76
2022/01/29 04:57:29;;;;;;;6.30;1.92;;;;;;;;;;5032792;28;100810;-75
2022/01/29 04:59:55;;;;;;;10.05;2.70;;;;;;;;;;5015195;28;100192;-76
2022/01/29 05:02:22;;;;;;;8.38;2.83;;;;;;;;;;4996301;28;100084;-76
2022/01/29 05:04:49;;;;;;;6.57;1.80;;;;;;;;;;4995727;28;100824;-76
2022/01/29 05:07:16;;;;;;;3.88;1.75;;;;;;;;;;4995935;28;100758;-75
2022/01/29 05:09:43;;;;;;;6.60;1.90;;;;;;;;;;4995559;28;100083;-76
2022/01/29 05:12:12;;;;;;;4.22;1.70;;;;;;;;;;5013923;28;100030;-76
2022/01/29 05:14:49;;;;;;;4.93;1.88;;;;;;;;;;5013511;28;100681;-76
2022/01/29 05:28:02;;;;;;;7.32;2.38;;;;;;;;;;4998329;28;100588;-77
2022/01/29 05:30:29;;;;;;;8.40;2.35;;;;;;;;;;4995034;28;100054;-75
2022/01/29 05:32:55;;;;;;;8.85;2.40;;;;;;;;;;5012993;28;100041;-77
2022/01/29 05:35:22;;;;;;;7.75;2.50;;;;;;;;;;4994675;28;100352;-75
2022/01/29 05:37:50;;;;;;;6.82;2.40;;;;;;;;;;5013046;28;100585;-75
2022/01/29 05:40:17;;;;;;;5.35;2.05;;;;;;;;;;5013076;28;100115;-76
2022/01/29 05:42:44;;;;;;;5.82;2.13;;;;;;;;;;4963656;28;99846;-76
2022/01/29 05:45:11;;;;;;;6.63;2.13;;;;;;;;;;4995301;28;100765;-75
2022/01/29 05:47:38;;;;;;;4.70;1.63;;;;;;;;;;5012509;28;101671;-76
2022/01/29 05:50:05;;;;;;;7.82;2.50;;;;;;;;;;5012986;28;99827;-76
2022/01/29 05:52:32;;;;;;;6.38;1.90;;;;;;;;;;4978948;28;100049;-76
2022/01/29 05:55:03;;;;;;;4.93;1.80;;;;;;;;;;4978724;28;100155;-77
2022/01/29 05:57:30;;;;;;;6.15;2.05;;;;;;;;;;4995227;28;100596;-76
2022/01/29 05:59:57;;;;;;;7.00;1.55;;;;;;;;;;4995368;28;100139;-76
2022/01/29 06:02:24;;;;;;;5.72;1.90;;;;;;;;;;4995161;28;100938;-77
2022/01/29 06:04:51;;;;;;;7.93;2.22;;;;;;;;;;4977739;28;100759;-75
2022/01/29 06:07:19;;;;;;;7.60;2.60;;;;;;;;;;5013079;28;100813;-76
2022/01/29 06:09:47;;;;;;;9.15;2.67;;;;;;;;;;4962779;28;99953;-75
2022/01/29 06:12:14;;;;;;;8.73;2.85;;;;;;;;;;4981737;28;100182;-76
2022/01/29 06:14:41;;;;;;;8.70;3.50;;;;;;;;;;5014320;28;101907;-76
2022/01/29 06:17:08;;;;;;;11.02;3.28;;;;;;;;;;5014861;28;100641;-76
2022/01/29 06:19:35;;;;;;;6.40;2.78;;;;;;;;;;5032377;28;100019;-76
2022/01/29 06:22:07;;;;;;;6.70;2.90;;;;;;;;;;5033031;28;99999;-76
2022/01/29 06:24:34;;;;;;;12.73;3.40;;;;;;;;;;4997818;28;102943;-76
2022/01/29 06:27:01;;;;;;;6.93;3.42;;;;;;;;;;5014274;28;101200;-76
2022/01/29 06:29:28;;;;;;;6.93;3.05;;;;;;;;;;4998571;28;100013;-75
2022/01/29 06:31:55;;;;;;;10.75;4.32;;;;;;;;;;5015326;28;100065;-76
2022/01/29 06:34:22;;;;;;;8.52;3.60;;;;;;;;;;5013911;28;100951;-76
2022/01/29 06:36:48;;;;;;;11.32;3.75;;;;;;;;;;5001217;28;102933;-76
2022/01/29 06:39:15;;;;;;;13.23;3.83;;;;;;;;;;5012182;28;101146;-76
2022/01/29 06:41:42;;;;;;;13.77;3.60;;;;;;;;;;4994447;28;99964;-77
2022/01/29 06:44:09;;;;;;;10.32;4.05;;;;;;;;;;4994319;28;100160;-76
2022/01/29 06:46:37;;;;;;;14.32;4.15;;;;;;;;;;4994149;28;100726;-76
2022/01/29 06:49:04;;;;;;;11.32;4.57;;;;;;;;;;5012095;28;100068;-77
2022/01/29 06:51:32;;;;;;;13.70;4.18;;;;;;;;;;4981844;28;99942;-76
2022/01/29 06:53:58;;;;;;;9.88;3.55;;;;;;;;;;5014365;28;100426;-76
2022/01/29 06:56:25;;;;;;;10.35;4.03;;;;;;;;;;5032363;28;100574;-76
2022/01/29 06:58:52;;;;;;;9.45;3.67;;;;;;;;;;5031862;28;102366;-76
2022/01/29 07:01:37;;;;;;;10.27;4.70;;;;;;;;;;5003118;28;100229;-76
2022/01/29 07:04:04;;;;;;;13.82;4.20;;;;;;;;;;5030952;28;100447;-76
2022/01/29 07:06:31;;;;;;;16.60;5.45;;;;;;;;;;5014015;28;101213;-76
2022/01/29 07:08:58;;;;;;;13.43;5.05;;;;;;;;;;5014548;28;100017;-75
2022/01/29 07:11:26;;;;;;;12.57;5.00;;;;;;;;;;4997723;28;100020;-76
2022/01/29 07:14:01;;;;;;;10.95;4.65;;;;;;;;;;5031758;28;100294;-77
2022/01/29 07:16:29;;;;;;;16.42;5.80;;;;;;;;;;5013843;28;100659;-77
2022/01/29 07:18:56;;;;;;;15.05;5.80;;;;;;;;;;4996677;28;102760;-75
2022/01/29 07:21:23;;;;;;;15.45;6.03;;;;;;;;;;5014583;28;100265;-76
2022/01/29 07:23:50;;;;;;;14.50;5.65;;;;;;;;;;4997459;28;100212;-76
2022/01/29 07:26:16;;;;;;;10.25;5.05;;;;;;;;;;4984801;28;101957;-75
2022/01/29 07:28:43;;;;;;;13.02;5.60;;;;;;;;;;4987375;28;100036;-76
2022/01/29 07:31:10;;;;;;;15.05;5.70;;;;;;;;;;5006535;28;100163;-75
2022/01/29 07:33:37;;;;;;;14.60;5.60;;;;;;;;;;4980433;28;103320;-75
2022/01/29 07:36:04;;;;;;;18.05;5.78;;;;;;;;;;5013288;28;100600;-76
2022/01/29 07:38:31;;;;;;;11.70;4.68;;;;;;;;;;5031821;28;100111;-75
2022/01/29 07:40:58;;;;;;;16.00;4.57;;;;;;;;;;5014021;28;100132;-76
2022/01/29 07:43:26;;;;;;;11.48;4.65;;;;;;;;;;5031018;28;100520;-76
2022/01/29 07:45:53;;;;;;;13.45;5.07;;;;;;;;;;5013926;28;100916;-74
2022/01/29 07:48:20;;;;;;;10.20;4.15;;;;;;;;;;5031884;28;100042;-75
2022/01/29 07:50:47;;;;;;;9.85;3.78;;;;;;;;;;4980045;28;100023;-76
2022/01/29 07:53:13;;;;;;;10.57;4.13;;;;;;;;;;5012323;28;100224;-75
2022/01/29 07:55:40;;;;;;;13.93;5.03;;;;;;;;;;5031105;28;100877;-76
2022/01/29 07:58:07;;;;;;;11.57;4.55;;;;;;;;;;5033808;27;99841;-76
2022/01/29 08:00:35;;;;;;;11.30;4.50;;;;;;;;;;5000426;28;100528;-76
2022/01/29 08:03:02;;;;;;;13.80;5.25;;;;;;;;;;5016469;28;101492;-76
2022/01/29 08:05:30;;;;;;;12.13;4.50;;;;;;;;;;5034295;28;100677;-77
2022/01/29 08:07:56;;;;;;;15.90;5.50;;;;;;;;;;5016392;28;100060;-75
2022/01/29 08:10:23;;;;;;;11.70;4.50;;;;;;;;;;5028121;28;99996;-76
2022/01/29 08:12:50;;;;;;;11.55;4.65;;;;;;;;;;4989823;28;100540;-77
2022/01/29 08:15:17;;;;;;;11.52;3.70;;;;;;;;;;5022296;28;100550;-76
2022/01/29 08:17:44;;;;;;;9.95;4.30;;;;;;;;;;5024197;28;100081;-76
2022/01/29 08:20:12;;;;;;;9.50;3.50;;;;;;;;;;5024464;28;100176;-76
2022/01/29 08:22:39;;;;;;;10.90;4.43;;;;;;;;;;5022133;28;100276;-77
2022/01/29 08:25:06;;;;;;;12.48;4.20;;;;;;;;;;5024093;28;100698;-76
2022/01/29 08:27:33;;;;;;;11.70;5.07;;;;;;;;;;5024859;28;100137;-76
2022/01/29 08:30:00;;;;;;;16.30;4.43;;;;;;;;;;5022731;28;100539;-77
2022/01/29 08:32:26;;;;;;;9.55;3.60;;;;;;;;;;5005750;28;103143;-77
2022/01/29 08:34:53;;;;;;;11.27;3.95;;;;;;;;;;5006718;28;100602;-76
2022/01/29 08:37:21;;;;;;;15.45;4.90;;;;;;;;;;5022675;28;100026;-78
2022/01/29 08:39:48;;;;;;;8.32;3.40;;;;;;;;;;5006209;28;100021;-77
2022/01/29 08:42:15;;;;;;;7.72;2.90;;;;;;;;;;5005999;28;100263;-76
2022/01/29 08:44:42;;;;;;;14.15;3.97;;;;;;;;;;4971008;28;103436;-77
2022/01/29 08:47:09;;;;;;;7.03;2.88;;;;;;;;;;4979820;28;100204;-76
2022/01/29 08:49:38;;;;;;;8.48;3.08;;;;;;;;;;5022102;28;100042;-77
2022/01/29 08:52:08;;;;;;;9.43;3.55;;;;;;;;;;5005516;28;100249;-76
2022/01/29 08:54:35;;;;;;;9.50;3.40;;;;;;;;;;5023459;28;100658;-76
2022/01/29 08:57:02;;;;;;;10.90;3.58;;;;;;;;;;5004273;28;100233;-76
2022/01/29 08:59:29;;;;;;;9.70;3.88;;;;;;;;;;5022175;28;100180;-77
2022/01/29 09:01:56;;;;;;;9.00;3.65;;;;;;;;;;5004543;28;102846;-76
2022/01/29 09:04:23;;;;;;;9.52;3.20;;;;;;;;;;5021602;28;100620;-77
2022/01/29 09:06:50;;;;;;;8.32;3.65;;;;;;;;;;5009275;28;100195;-77
2022/01/29 09:09:20;;;;;;;8.68;2.88;;;;;;;;;;5005497;28;100195;-76
2022/01/29 09:11:47;;;;;;;13.65;3.80;;;;;;;;;;5029841;28;100622;-76
2022/01/29 09:14:14;;;;;;;11.10;3.10;;;;;;;;;;5002493;28;103031;-76
2022/01/29 09:16:41;;;;;;;13.55;3.55;;;;;;;;;;5017854;28;100233;-75
2022/01/29 09:19:08;;;;;;;13.80;2.85;;;;;;;;;;5032496;28;100070;-75
2022/01/29 09:21:34;;;;;;;8.68;2.83;;;;;;;;;;5014698;28;100212;-76
2022/01/29 09:24:01;;;;;;;10.32;3.38;;;;;;;;;;5029247;28;101594;-76
2022/01/29 09:26:28;;;;;;;9.90;3.42;;;;;;;;;;4987337;28;99934;-76
2022/01/29 09:28:55;;;;;;;9.75;3.63;;;;;;;;;;4983714;28;100108;-75
2022/01/29 09:31:22;;;;;;;15.35;4.40;;;;;;;;;;4993788;28;100123;-74
2022/01/29 09:33:49;;;;;;;9.48;4.15;;;;;;;;;;4979556;28;100870;-74
2022/01/29 09:36:15;;;;;;;14.02;4.50;;;;;;;;;;5000757;28;100149;-75
2022/01/29 09:38:42;;;;;;;13.82;4.75;;;;;;;;;;5010296;28;101253;-75
2022/01/29 09:41:12;;;;;;;13.55;4.53;;;;;;;;;;5023228;28;100233;-75
2022/01/29 09:43:42;;;;;;;7.93;3.85;;;;;;;;;;4974433;28;103289;-75
2022/01/29 09:46:09;;;;;;;13.05;4.45;;;;;;;;;;4995467;28;100146;-75
2022/01/29 09:48:36;;;;;;;10.70;3.70;;;;;;;;;;5028506;28;100023;-76
2022/01/29 09:51:05;;;;;;;11.98;3.78;;;;;;;;;;4977752;28;100176;-74
2022/01/29 09:53:32;;;;;;;13.13;5.25;;;;;;;;;;5001684;28;100642;-75
2022/01/29 09:55:59;;;;;;;18.90;4.05;;;;;;;;;;4987531;28;102583;-76
2022/01/29 09:58:25;;;;;;;9.45;3.92;;;;;;;;;;5015152;28;100322;-75
2022/01/29 10:00:52;;;;;;;11.20;3.40;;;;;;;;;;5000239;28;101394;-75
2022/01/29 10:03:20;;;;;;;11.88;4.13;;;;;;;;;;5004261;28;100740;-76
2022/01/29 10:05:51;;;;;;;12.95;4.40;;;;;;;;;;4986524;28;100121;-76
2022/01/29 10:08:20;;;;;;;13.57;4.25;;;;;;;;;;4993924;28;100151;-77
2022/01/29 10:10:48;;;;;;;15.27;4.07;;;;;;;;;;5031192;28;100490;-77
2022/01/29 10:13:31;;;;;;;9.60;3.45;;;;;;;;;;5013663;28;100609;-76
2022/01/29 10:16:13;;;;;;;11.07;4.05;;;;;;;;;;5031176;28;99963;-75
2022/01/29 10:18:41;;;;;;;13.35;3.67;;;;;;;;;;5002582;28;100132;-74
2022/01/29 10:21:14;;;;;;;9.52;3.55;;;;;;;;;;4988060;28;101485;-76
2022/01/29 10:23:41;;;;;;;12.52;3.95;;;;;;;;;;5008687;28;100724;-76
2022/01/29 10:26:10;;;;;;;13.05;4.03;;;;;;;;;;5000034;28;100086;-77
2022/01/29 10:28:37;;;;;;;12.95;3.78;;;;;;;;;;4979475;28;100073;-76
2022/01/29 10:31:06;;;;;;;10.63;3.80;;;;;;;;;;5029505;28;100267;-76
2022/01/29 10:33:39;;;;;;;14.85;4.25;;;;;;;;;;5016026;28;100716;-75
2022/01/29 10:36:07;;;;;;;8.40;3.30;;;;;;;;;;4992143;28;100110;-75
2022/01/29 10:38:41;;;;;;;9.63;3.63;;;;;;;;;;4960668;28;100201;-76
2022/01/29 10:41:27;;;;;;;11.05;3.65;;;;;;;;;;4992481;28;100350;-75
2022/01/29 10:44:12;;;;;;;9.38;3.78;;;;;;;;;;4992897;28;100659;-76
2022/01/29 10:46:42;;;;;;;11.48;3.47;;;;;;;;;;5010899;28;100052;-76
2022/01/29 10:49:17;;;;;;;13.43;3.97;;;;;;;;;;4993468;28;100137;-76
2022/01/29 10:52:03;;;;;;;8.25;3.65;;;;;;;;;;4992794;28;100397;-76
2022/01/29 10:54:32;;;;;;;13.02;3.75;;;;;;;;;;4976056;28;103724;-76
2022/01/29 10:57:00;;;;;;;16.35;3.95;;;;;;;;;;5004521;28;99937;-75
2022/01/29 10:59:29;;;;;;;9.32;3.88;;;;;;;;;;5031205;28;100066;-75
2022/01/29 11:02:08;;;;;;;12.95;4.85;;;;;;;;;;4997606;28;100196;-76
2022/01/29 11:04:36;;;;;;;13.75;4.68;;;;;;;;;;5030824;28;100874;-75
2022/01/29 11:07:09;;;;;;;12.30;4.30;;;;;;;;;;4996576;28;100468;-75
2022/01/29 11:09:39;;;;;;;14.05;4.20;;;;;;;;;;5014148;28;100019;-76
2022/01/29 11:12:07;;;;;;;11.88;3.47;;;;;;;;;;4996139;28;100159;-75
2022/01/29 11:14:35;;;;;;;13.55;4.32;;;;;;;;;;4996035;28;100606;-76
2022/01/29 11:17:03;;;;;;;9.45;4.25;;;;;;;;;;4997415;28;100207;-76
2022/01/29 11:19:33;;;;;;;9.80;3.75;;;;;;;;;;4994924;28;100177;-76
2022/01/29 11:22:40;;;;;;;12.73;4.57;;;;;;;;;;4953736;28;100650;-77
2022/01/29 11:25:45;;;;;;;12.57;4.68;;;;;;;;;;4931738;28;103661;-75
2022/01/29 11:28:16;;;;;;;9.63;2.90;;;;;;;;;;4935667;28;100383;-76
2022/01/29 11:31:13;;;;;;;8.63;2.65;;;;;;;;;;4951839;28;100374;-75
2022/01/29 11:34:04;;;;;;;6.93;2.47;;;;;;;;;;4971431;28;100512;-75
2022/01/29 11:37:03;;;;;;;9.25;2.15;;;;;;;;;;4953791;28;100607;-76
2022/01/29 11:39:30;;;;;;;7.38;2.30;;;;;;;;;;4971454;28;100030;-75
2022/01/29 11:42:17;;;;;;;7.75;2.30;;;;;;;;;;4939957;28;101402;-75
2022/01/29 11:44:45;;;;;;;9.13;3.38;;;;;;;;;;4964966;28;100286;-75
2022/01/29 11:47:25;;;;;;;13.18;3.63;;;;;;;;;;4971938;28;100782;-76
2022/01/29 11:49:53;;;;;;;11.88;3.67;;;;;;;;;;4972295;28;100080;-75
2022/01/29 11:52:22;;;;;;;7.97;3.88;;;;;;;;;;4972380;28;100321;-75
2022/01/29 11:55:06;;;;;;;12.32;4.57;;;;;;;;;;4940563;28;100823;-76
2022/01/29 11:57:59;;;;;;;12.40;4.50;;;;;;;;;;4999500;28;100813;-77
2022/01/29 12:00:36;;;;;;;13.35;4.35;;;;;;;;;;5004021;28;100407;-76
2022/01/29 12:03:08;;;;;;;15.20;4.10;;;;;;;;;;5015914;28;100184;-76
2022/01/29 12:09:07;;;;;;;14.98;4.70;;;;;;;;;;4978694;28;102025;-77
2022/01/29 12:11:39;;;;;;;12.93;5.10;;;;;;;;;;4995540;28;100131;-75
2022/01/29 12:14:12;;;;;;;14.48;5.10;;;;;;;;;;4996900;28;100070;-76
2022/01/29 12:17:02;;;;;;;11.20;4.97;;;;;;;;;;4994954;28;100434;-76
2022/01/29 12:19:45;;;;;;;11.88;5.30;;;;;;;;;;4995033;28;103875;-75
2022/01/29 12:22:17;;;;;;;19.08;5.32;;;;;;;;;;4995953;28;100126;-76
2022/01/29 12:24:50;;;;;;;17.45;5.30;;;;;;;;;;4980192;28;100037;-75
2022/01/29 12:27:17;;;;;;;14.43;5.03;;;;;;;;;;5013296;28;100269;-76
2022/01/29 12:29:46;;;;;;;14.52;5.25;;;;;;;;;;5013123;28;100697;-76
2022/01/29 12:32:13;;;;;;;14.10;4.90;;;;;;;;;;4995560;28;100238;-75
2022/01/29 12:34:52;;;;;;;10.75;4.63;;;;;;;;;;5012602;28;100140;-76
2022/01/29 12:38:02;;;;;;;14.43;4.85;;;;;;;;;;4961852;28;100320;-76
2022/01/29 12:40:35;;;;;;;12.30;4.85;;;;;;;;;;5003372;28;100691;-76
2022/01/29 12:43:10;;;;;;;10.77;4.47;;;;;;;;;;5014576;28;100212;-73
2022/01/29 12:45:38;;;;;;;13.65;4.47;;;;;;;;;;5032997;28;100079;-75
2022/01/29 12:48:09;;;;;;;14.98;4.60;;;;;;;;;;5015117;28;100214;-75
2022/01/29 12:50:42;;;;;;;7.53;3.83;;;;;;;;;;5015259;28;100612;-75
2022/01/29 12:53:45;;;;;;;6.18;2.72;;;;;;;;;;4990035;28;100229;-76
2022/01/29 12:56:36;;;;;;;6.75;2.13;;;;;;;;;;4957211;28;100129;-76
2022/01/29 12:59:30;;;;;;;5.75;2.28;;;;;;;;;;4926230;28;103096;-76
2022/01/29 13:02:45;;;;;;;5.35;1.80;;;;;;;;;;4969766;28;100779;-77
2022/01/29 13:05:43;;;;;;;6.95;2.30;;;;;;;;;;4978224;28;100313;-76
2022/01/29 13:08:25;;;;;;;7.10;2.85;;;;;;;;;;4958023;28;100283;-76
2022/01/29 13:11:28;;;;;;;5.88;1.80;;;;;;;;;;4943072;28;102832;-75
2022/01/29 13:14:21;;;;;;;4.35;2.33;;;;;;;;;;4929763;28;103438;-76
2022/01/29 13:17:25;;;;;;;9.95;2.30;;;;;;;;;;4916950;28;100222;-75
2022/01/29 13:19:54;;;;;;;5.93;2.45;;;;;;;;;;4913453;28;100174;-76
2022/01/29 13:22:21;;;;;;;8.32;2.53;;;;;;;;;;4915269;28;100848;-76
2022/01/29 13:24:50;;;;;;;10.35;2.20;;;;;;;;;;4918744;28;101358;-76
2022/01/29 13:27:29;;;;;;;5.90;2.30;;;;;;;;;;4953051;28;100372;-76
2022/01/29 13:30:18;;;;;;;5.30;2.15;;;;;;;;;;4954239;28;100013;-77
2022/01/29 13:33:06;;;;;;;6.32;1.88;;;;;;;;;;4969940;28;100709;-76
2022/01/29 13:35:34;;;;;;;5.60;2.30;;;;;;;;;;4953340;28;103506;-75
2022/01/29 13:38:13;;;;;;;4.20;1.98;;;;;;;;;;4954114;28;101555;-75
2022/01/29 13:40:41;;;;;;;4.35;2.22;;;;;;;;;;4951482;28;100157;-76
2022/01/29 13:43:09;;;;;;;5.93;2.60;;;;;;;;;;4950916;28;100439;-77
2022/01/29 13:45:46;;;;;;;3.55;2.22;;;;;;;;;;4974970;28;100558;-76
2022/01/29 13:48:14;;;;;;;6.93;2.13;;;;;;;;;;4994686;28;100267;-77
2022/01/29 13:50:47;;;;;;;6.20;2.65;;;;;;;;;;5012960;28;100127;-76
2022/01/29 13:53:16;;;;;;;5.67;2.23;;;;;;;;;;4977698;28;103361;-76
2022/01/29 13:55:54;;;;;;;6.88;2.50;;;;;;;;;;5011458;28;100604;-75
2022/01/29 13:58:25;;;;;;;5.95;2.72;;;;;;;;;;5012758;28;99957;-76
2022/01/29 14:00:57;;;;;;;6.80;2.40;;;;;;;;;;5009521;28;100106;-76
2022/01/29 14:03:47;;;;;;;5.95;2.60;;;;;;;;;;5032070;28;100224;-76
2022/01/29 14:06:19;;;;;;;7.45;2.55;;;;;;;;;;4978628;28;100582;-76
2022/01/29 14:08:47;;;;;;;5.50;2.42;;;;;;;;;;4994265;28;100195;-76
2022/01/29 14:11:16;;;;;;;6.38;2.65;;;;;;;;;;4979150;28;100102;-76
2022/01/29 14:13:43;;;;;;;7.72;2.60;;;;;;;;;;4994826;28;100486;-76
2022/01/29 14:16:10;;;;;;;5.55;2.17;;;;;;;;;;5012638;28;100701;-76
2022/01/29 14:18:37;;;;;;;6.28;2.55;;;;;;;;;;5012452;28;100085;-76
2022/01/29 14:21:04;;;;;;;6.85;2.17;;;;;;;;;;5012395;28;100197;-76
2022/01/29 14:23:31;;;;;;;4.97;1.98;;;;;;;;;;5009047;28;103251;-77
2022/01/29 14:26:16;;;;;;;4.53;2.17;;;;;;;;;;4997301;28;100742;-76
2022/01/29 14:28:43;;;;;;;5.03;2.42;;;;;;;;;;4994767;28;100165;-76
2022/01/29 14:31:10;;;;;;;6.65;2.38;;;;;;;;;;4994895;28;100186;-76
2022/01/29 14:33:37;;;;;;;5.65;2.65;;;;;;;;;;4977991;28;100260;-76
2022/01/29 14:36:04;;;;;;;6.47;2.65;;;;;;;;;;5011985;28;100683;-76
2022/01/29 14:38:31;;;;;;;4.57;2.10;;;;;;;;;;4994644;28;99980;-76
2022/01/29 14:40:57;;;;;;;6.07;2.60;;;;;;;;;;4994801;28;100250;-76
2022/01/29 14:43:24;;;;;;;5.40;2.00;;;;;;;;;;4993735;28;101555;-76
2022/01/29 14:45:51;;;;;;;8.38;2.75;;;;;;;;;;4977279;28;101317;-76
2022/01/29 14:48:18;;;;;;;6.38;2.80;;;;;;;;;;5012218;28;100081;-76
2022/01/29 14:50:47;;;;;;;8.13;3.10;;;;;;;;;;5011921;28;99988;-76
2022/01/29 14:53:15;;;;;;;8.95;3.47;;;;;;;;;;4994036;28;100288;-76
2022/01/29 14:55:53;;;;;;;7.78;2.90;;;;;;;;;;4980970;28;100621;-76
2022/01/29 14:58:20;;;;;;;6.88;3.33;;;;;;;;;;5002624;28;100272;-76
2022/01/29 15:00:47;;;;;;;6.75;2.70;;;;;;;;;;5032469;28;100132;-75